Terminal Aerodrome Forecast
Issued by NWS

Current Version | Previous Version | Graphics & Text | Print | Product List | Glossary On
Versions: 1 2 3 4 5 6 7 8 9 10 11 12 13 14 15 16 17 18
000
FTUS41 KILN 182100 AAA
TAFLUK
TAF AMD
KLUK 182157Z 1822/1918 32010KT P6SM -SHRA OVC035
     FM190000 33008KT P6SM OVC030
     FM190800 34005KT P6SM SCT025
     FM191500 30004KT P6SM FEW040=

USA.gov is the U.S. government's official web portal to all federal, state and local government web resources and services.